createdAt,value
2022-10-22T00:00:36.098Z,65.58
2022-10-22T00:03:05.920Z,65.28
2022-10-22T00:05:33.883Z,65.09
2022-10-22T00:08:01.399Z,64.90
2022-10-22T00:10:29.490Z,64.75
2022-10-22T00:12:57.275Z,64.61
2022-10-22T00:15:25.316Z,64.47
2022-10-22T00:17:53.239Z,64.28
2022-10-22T00:20:20.954Z,64.20
2022-10-22T00:22:48.986Z,64.18
2022-10-22T00:25:17.078Z,64.19
2022-10-22T00:27:45.022Z,64.17
2022-10-22T00:30:13.276Z,64.12
2022-10-22T00:32:41.220Z,64.02
2022-10-22T00:35:09.276Z,64.20
2022-10-22T00:37:37.183Z,64.27
2022-10-22T00:40:05.924Z,64.35
2022-10-22T00:42:33.424Z,64.42
2022-10-22T00:45:21.231Z,64.49
2022-10-22T00:47:57.537Z,64.61
2022-10-22T00:50:42.775Z,64.75
2022-10-22T00:53:18.820Z,64.95
2022-10-22T00:55:51.250Z,65.25
2022-10-22T00:58:23.450Z,65.37
2022-10-22T01:00:51.517Z,65.47
2022-10-22T01:03:19.399Z,65.62
2022-10-22T01:05:57.306Z,65.86
2022-10-22T01:08:51.544Z,65.85
2022-10-22T01:11:48.840Z,65.92
2022-10-22T01:14:39.810Z,66.00
2022-10-22T01:17:34.781Z,66.06
2022-10-22T01:20:40.964Z,66.22
2022-10-22T01:23:25.681Z,66.39
2022-10-22T01:26:16.935Z,66.51
2022-10-22T01:29:16.649Z,66.60
2022-10-22T01:31:55.248Z,66.92
2022-10-22T01:34:24.651Z,67.07
2022-10-22T01:36:54.020Z,67.14
2022-10-22T01:39:23.596Z,67.37
2022-10-22T01:41:55.454Z,67.76
2022-10-22T01:47:33.319Z,67.92
2022-10-22T01:50:23.684Z,68.13
2022-10-22T01:53:29.802Z,68.18
2022-10-22T01:56:17.610Z,68.45
2022-10-22T01:59:05.532Z,68.38
2022-10-22T02:01:41.344Z,68.46
2022-10-22T02:04:35.414Z,68.39
2022-10-22T02:07:06.299Z,68.41
2022-10-22T02:09:35.602Z,68.32
2022-10-22T02:12:06.725Z,68.50
2022-10-22T02:14:37.579Z,68.44
2022-10-22T02:17:09.243Z,68.45
2022-10-22T02:19:45.401Z,68.45
2022-10-22T02:22:13.315Z,68.45
2022-10-22T02:24:41.254Z,68.46
2022-10-22T02:27:31.834Z,68.38
2022-10-22T02:30:13.843Z,68.33
2022-10-22T02:33:11.850Z,68.25
2022-10-22T02:35:41.700Z,68.25
2022-10-22T02:38:11.637Z,68.32
2022-10-22T02:40:39.319Z,68.38
2022-10-22T02:43:07.108Z,68.40
2022-10-22T02:45:35.575Z,68.47
2022-10-22T02:48:03.962Z,68.48
2022-10-22T02:50:32.074Z,68.60
2022-10-22T02:52:59.893Z,68.66
2022-10-22T02:55:27.752Z,68.77
2022-10-22T02:57:55.484Z,68.78
2022-10-22T03:00:23.439Z,68.82
2022-10-22T03:02:51.160Z,68.74
2022-10-22T03:05:18.886Z,68.84
2022-10-22T03:07:46.718Z,68.78
2022-10-22T03:10:14.619Z,68.72
2022-10-22T03:12:42.440Z,68.73
2022-10-22T03:15:10.784Z,68.66
2022-10-22T03:17:39.058Z,68.67
2022-10-22T03:20:08.404Z,68.69
2022-10-22T03:22:40.456Z,68.72
2022-10-22T03:25:12.318Z,68.90
2022-10-22T03:27:42.107Z,68.73
2022-10-22T03:30:11.526Z,68.71
2022-10-22T03:32:39.203Z,68.57
2022-10-22T03:35:07.878Z,68.57
2022-10-22T03:37:36.856Z,68.45
2022-10-22T03:40:07.865Z,68.35
2022-10-22T03:42:35.730Z,68.15
2022-10-22T03:45:03.934Z,68.03
2022-10-22T03:47:31.853Z,67.85
2022-10-22T03:49:59.686Z,67.69
2022-10-22T03:52:27.547Z,67.55
2022-10-22T03:54:55.343Z,67.53
2022-10-22T03:57:23.256Z,67.42
2022-10-22T03:59:51.117Z,67.28
2022-10-22T04:02:19.118Z,67.22
2022-10-22T04:04:46.926Z,67.05
2022-10-22T04:07:14.798Z,67.04
2022-10-22T04:09:42.646Z,67.04
2022-10-22T04:12:10.424Z,66.99
2022-10-22T04:14:38.136Z,66.99
2022-10-22T04:17:05.574Z,66.99
2022-10-22T04:19:33.505Z,66.82
2022-10-22T04:22:01.596Z,66.89
2022-10-22T04:24:31.393Z,66.79
2022-10-22T04:26:59.264Z,66.75
2022-10-22T04:29:27.438Z,66.68
2022-10-22T04:31:55.390Z,66.62
2022-10-22T04:34:25.291Z,66.62
2022-10-22T04:36:53.276Z,66.65
2022-10-22T04:39:21.202Z,66.69
2022-10-22T04:41:50.967Z,66.71
2022-10-22T04:44:20.852Z,66.77
2022-10-22T04:46:53.924Z,66.80
2022-10-22T04:49:22.351Z,66.74
2022-10-22T04:51:50.450Z,66.78
2022-10-22T04:54:18.377Z,66.83
2022-10-22T04:56:46.407Z,66.71
2022-10-22T04:59:14.544Z,66.56
2022-10-22T05:01:48.041Z,66.47
2022-10-22T05:04:21.470Z,66.35
2022-10-22T05:06:53.440Z,66.25
2022-10-22T05:09:21.321Z,66.09
2022-10-22T05:11:51.460Z,65.95
2022-10-22T05:14:24.592Z,65.91
2022-10-22T05:16:52.712Z,65.78
2022-10-22T05:19:30.260Z,65.60
2022-10-22T05:22:00.817Z,65.60
2022-10-22T05:24:31.474Z,65.58
2022-10-22T05:27:00.450Z,65.57
2022-10-22T05:29:28.315Z,65.64
2022-10-22T05:31:56.629Z,65.67
2022-10-22T05:34:24.672Z,65.70
2022-10-22T05:36:52.693Z,65.91
2022-10-22T05:39:20.548Z,65.95
2022-10-22T05:41:48.174Z,65.96
2022-10-22T05:44:16.163Z,65.90
2022-10-22T05:46:44.831Z,65.87
2022-10-22T05:49:15.465Z,65.84
2022-10-22T05:51:43.120Z,65.72
2022-10-22T05:54:20.189Z,65.68
2022-10-22T05:56:48.421Z,65.70
2022-10-22T05:59:30.030Z,65.59
2022-10-22T06:02:04.394Z,65.49
2022-10-22T06:04:43.610Z,65.51
2022-10-22T06:07:11.234Z,65.76
2022-10-22T06:09:39.511Z,65.76
2022-10-22T06:12:09.197Z,65.49
2022-10-22T06:14:40.339Z,65.27
2022-10-22T06:17:11.177Z,65.33
2022-10-22T06:19:38.814Z,65.20
2022-10-22T06:22:06.349Z,64.64
2022-10-22T06:24:34.266Z,64.02
2022-10-22T06:27:02.402Z,62.89
2022-10-22T06:29:29.809Z,62.71
2022-10-22T06:31:57.192Z,62.47
2022-10-22T06:34:24.858Z,62.18
2022-10-22T06:36:52.684Z,62.12
2022-10-22T06:39:20.373Z,61.99
2022-10-22T06:41:48.621Z,61.66
2022-10-22T06:44:22.042Z,61.27
2022-10-22T06:46:51.859Z,60.96
2022-10-22T06:49:21.400Z,60.66
2022-10-22T06:51:53.625Z,60.77
2022-10-22T06:54:22.590Z,60.49
2022-10-22T06:56:50.314Z,59.92
2022-10-22T06:59:18.082Z,59.08
2022-10-22T07:01:45.978Z,58.90
2022-10-22T07:04:13.860Z,58.30
2022-10-22T07:06:46.707Z,57.42
2022-10-22T07:11:53.562Z,53.59
2022-10-22T07:14:21.104Z,52.87
2022-10-22T07:16:49.539Z,52.28
2022-10-22T07:19:17.141Z,51.19
2022-10-22T07:21:44.904Z,50.20
2022-10-22T07:24:12.632Z,49.37
2022-10-22T07:26:40.216Z,49.32
2022-10-22T07:29:17.811Z,47.08
2022-10-22T07:31:45.870Z,48.68
2022-10-22T07:36:46.218Z,46.87
2022-10-22T07:39:14.010Z,47.26
2022-10-22T07:41:42.103Z,46.71
2022-10-22T07:47:18.979Z,46.18
2022-10-22T07:49:47.364Z,45.81
2022-10-22T07:52:15.497Z,44.88
2022-10-22T07:54:47.304Z,44.96
2022-10-22T07:57:29.975Z,43.90
2022-10-22T08:00:09.075Z,42.78
2022-10-22T08:02:42.697Z,41.87
2022-10-22T08:05:14.748Z,42.84
2022-10-22T08:07:43.338Z,42.82
2022-10-22T08:10:12.473Z,40.23
2022-10-22T08:12:41.987Z,38.85
2022-10-22T08:15:11.026Z,40.57
2022-10-22T08:17:39.705Z,40.50
2022-10-22T08:20:09.244Z,39.47
2022-10-22T08:22:37.395Z,39.83
2022-10-22T08:25:06.329Z,39.64
2022-10-22T08:27:33.906Z,39.37
2022-10-22T08:30:02.128Z,39.56
2022-10-22T08:32:35.857Z,38.07
2022-10-22T08:35:04.565Z,37.78
2022-10-22T08:37:32.627Z,37.81
2022-10-22T08:40:00.822Z,37.92
2022-10-22T08:43:08.605Z,37.83
2022-10-22T08:46:12.236Z,36.56
2022-10-22T08:48:45.156Z,34.21
2022-10-22T08:51:20.216Z,34.83
2022-10-22T08:54:08.055Z,35.67
2022-10-22T08:56:37.078Z,35.42
2022-10-22T08:59:15.122Z,34.61
2022-10-22T09:01:49.260Z,34.63
2022-10-22T09:04:25.424Z,34.63
2022-10-22T09:06:55.694Z,33.41
2022-10-22T09:09:27.813Z,33.68
2022-10-22T09:11:57.851Z,34.13
2022-10-22T09:14:26.492Z,34.08
2022-10-22T09:17:33.448Z,34.16
2022-10-22T09:20:17.178Z,33.26
2022-10-22T09:22:59.159Z,33.19
2022-10-22T09:25:31.678Z,33.19
2022-10-22T09:27:59.289Z,33.03
2022-10-22T09:30:31.413Z,32.53
2022-10-22T09:33:25.314Z,32.91
2022-10-22T09:36:06.266Z,32.59
2022-10-22T09:38:43.070Z,32.58
2022-10-22T09:41:10.884Z,32.99
2022-10-22T09:43:38.509Z,32.62
2022-10-22T09:46:19.771Z,32.74
2022-10-22T09:49:05.385Z,31.92
2022-10-22T09:51:41.295Z,32.26
2022-10-22T09:54:21.966Z,31.73
2022-10-22T09:57:05.699Z,31.70
2022-10-22T09:59:37.507Z,31.53
2022-10-22T10:02:20.300Z,31.66
2022-10-22T10:05:03.088Z,31.97
2022-10-22T10:07:36.848Z,32.69
2022-10-22T10:10:12.849Z,32.43
2022-10-22T10:12:48.688Z,33.19
2022-10-22T10:15:36.625Z,33.46
2022-10-22T10:18:24.371Z,33.68
2022-10-22T10:21:29.053Z,33.64
2022-10-22T10:24:27.630Z,33.65
2022-10-22T10:27:09.022Z,33.42
2022-10-22T10:29:45.267Z,32.56
2022-10-22T10:32:23.680Z,32.82
2022-10-22T10:35:05.173Z,32.74
2022-10-22T10:37:40.812Z,32.86
2022-10-22T10:40:25.652Z,32.83
2022-10-22T10:43:31.450Z,33.18
2022-10-22T10:46:10.666Z,32.65
2022-10-22T10:48:57.988Z,31.30
2022-10-22T10:51:39.629Z,31.96
2022-10-22T10:57:34.569Z,31.95
2022-10-22T11:00:13.339Z,32.10
2022-10-22T11:03:22.457Z,32.74
2022-10-22T11:06:00.196Z,33.06
2022-10-22T11:08:49.325Z,33.32
2022-10-22T11:11:40.222Z,33.95
2022-10-22T11:14:34.171Z,34.47
2022-10-22T11:17:10.296Z,34.36
2022-10-22T11:19:51.675Z,34.63
2022-10-22T11:22:25.823Z,35.42
2022-10-22T11:25:01.905Z,35.40
2022-10-22T11:28:06.769Z,35.21
2022-10-22T11:30:35.800Z,35.31
2022-10-22T11:33:12.773Z,34.50
2022-10-22T11:35:43.924Z,34.45
2022-10-22T11:38:20.665Z,34.37
2022-10-22T11:41:04.717Z,34.30
2022-10-22T11:43:55.138Z,34.29
2022-10-22T11:46:27.444Z,34.61
2022-10-22T11:49:15.078Z,33.76
2022-10-22T11:51:48.242Z,34.09
2022-10-22T11:54:40.625Z,34.12
2022-10-22T11:57:20.076Z,34.58
2022-10-22T11:59:59.908Z,34.60
2022-10-22T12:02:44.845Z,34.75
2022-10-22T12:05:29.770Z,34.39
2022-10-22T12:08:02.682Z,34.57
2022-10-22T12:11:07.658Z,34.37
2022-10-22T12:14:23.611Z,34.53
2022-10-22T12:16:57.814Z,34.32
2022-10-22T12:19:43.055Z,34.35
2022-10-22T12:22:22.054Z,34.26
2022-10-22T12:24:54.746Z,35.04
2022-10-22T12:27:26.195Z,35.31
2022-10-22T12:29:57.798Z,35.04
2022-10-22T12:32:40.330Z,35.10
2022-10-22T12:35:19.413Z,34.79
2022-10-22T12:37:56.434Z,35.34
2022-10-22T12:40:30.376Z,35.63
2022-10-22T12:43:04.660Z,35.53
2022-10-22T12:45:34.966Z,35.69
2022-10-22T12:48:08.531Z,35.95
2022-10-22T12:50:40.416Z,36.34
2022-10-22T12:53:33.733Z,36.55
2022-10-22T12:56:05.867Z,36.54
2022-10-22T12:58:41.181Z,36.60
2022-10-22T13:01:12.478Z,36.84
2022-10-22T13:03:50.280Z,36.70
2022-10-22T13:06:25.412Z,37.14
2022-10-22T13:09:01.312Z,37.56
2022-10-22T13:11:50.291Z,37.88
2022-10-22T13:14:28.512Z,38.11
2022-10-22T13:17:06.228Z,38.26
2022-10-22T13:19:57.959Z,38.39
2022-10-22T13:22:38.800Z,38.47
2022-10-22T13:25:21.036Z,38.67
2022-10-22T13:28:00.154Z,38.81
2022-10-22T13:30:32.997Z,39.01
2022-10-22T13:33:09.330Z,39.14
2022-10-22T13:35:38.379Z,39.27
2022-10-22T13:38:18.795Z,39.51
2022-10-22T13:40:47.537Z,39.52
2022-10-22T13:43:16.673Z,39.45
2022-10-22T13:45:47.596Z,39.54
2022-10-22T13:48:20.803Z,39.76
2022-10-22T13:50:50.787Z,39.82
2022-10-22T13:53:25.463Z,40.02
2022-10-22T13:55:53.451Z,40.17
2022-10-22T13:58:26.489Z,40.29
2022-10-22T14:01:01.955Z,40.48
2022-10-22T14:03:33.714Z,40.50
2022-10-22T14:06:02.619Z,40.67
2022-10-22T14:08:30.401Z,41.16
2022-10-22T14:10:58.071Z,41.34
2022-10-22T14:13:27.201Z,41.50
2022-10-22T14:15:55.152Z,41.83
2022-10-22T14:18:30.847Z,41.98
2022-10-22T14:21:06.877Z,42.11
2022-10-22T14:23:36.124Z,42.46
2022-10-22T14:26:04.604Z,42.66
2022-10-22T14:28:40.984Z,42.87
2022-10-22T14:31:02.833Z,43.02
2022-10-22T14:33:32.760Z,43.57
2022-10-22T14:36:00.977Z,43.87
2022-10-22T14:38:29.311Z,44.30
2022-10-22T14:40:59.337Z,44.67
2022-10-22T14:43:30.670Z,44.93
2022-10-22T14:46:01.896Z,44.98
2022-10-22T14:48:29.519Z,45.08
2022-10-22T14:50:58.205Z,45.27
2022-10-22T14:53:25.928Z,45.72
2022-10-22T14:55:58.792Z,45.99
2022-10-22T14:58:28.986Z,46.35
2022-10-22T15:01:04.212Z,47.09
2022-10-22T15:03:32.338Z,48.22
2022-10-22T15:06:00.081Z,48.77
2022-10-22T15:08:28.427Z,49.27
2022-10-22T15:11:06.024Z,49.45
2022-10-22T15:13:34.634Z,50.19
2022-10-22T15:16:07.875Z,50.89
2022-10-22T15:18:36.238Z,51.18
2022-10-22T15:21:08.284Z,51.42
2022-10-22T15:23:38.119Z,51.77
2022-10-22T15:26:11.125Z,52.20
2022-10-22T15:28:40.462Z,53.12
2022-10-22T15:31:11.877Z,54.12
2022-10-22T15:33:42.455Z,54.71
2022-10-22T15:36:16.130Z,55.18
2022-10-22T15:38:43.963Z,55.59
2022-10-22T15:41:12.866Z,56.00
2022-10-22T15:43:40.753Z,56.30
2022-10-22T15:46:18.173Z,56.63
2022-10-22T15:48:46.335Z,56.73
2022-10-22T15:51:17.209Z,57.11
2022-10-22T15:53:51.315Z,57.53
2022-10-22T15:56:19.354Z,57.84
2022-10-22T15:58:47.586Z,58.33
2022-10-22T16:01:15.485Z,58.69
2022-10-22T16:03:43.032Z,58.96
2022-10-22T16:06:11.248Z,59.23
2022-10-22T16:08:45.474Z,59.30
2022-10-22T16:11:14.735Z,59.51
2022-10-22T16:13:42.769Z,59.64
2022-10-22T16:16:11.735Z,59.89
2022-10-22T16:18:39.568Z,60.12
2022-10-22T16:21:19.827Z,60.39
2022-10-22T16:23:48.828Z,60.64
2022-10-22T16:26:17.932Z,60.78
2022-10-22T16:28:48.667Z,60.91
2022-10-22T16:31:19.687Z,61.27
2022-10-22T16:33:50.019Z,61.51
2022-10-22T16:36:20.057Z,61.94
2022-10-22T16:38:49.260Z,61.82
2022-10-22T16:44:21.088Z,62.08
2022-10-22T16:46:48.571Z,62.21
2022-10-22T16:49:16.482Z,62.39
2022-10-22T16:51:44.577Z,62.68
2022-10-22T16:54:13.605Z,62.63
2022-10-22T16:56:41.081Z,62.79
2022-10-22T16:59:09.502Z,62.92
2022-10-22T17:01:40.991Z,62.90
2022-10-22T17:04:06.405Z,62.98
2022-10-22T17:06:34.149Z,63.08
2022-10-22T17:09:01.706Z,63.20
2022-10-22T17:11:31.390Z,63.24
2022-10-22T17:13:58.940Z,63.25
2022-10-22T17:16:26.649Z,63.29
2022-10-22T17:18:55.936Z,63.31
2022-10-22T17:21:24.901Z,63.28
2022-10-22T17:23:57.925Z,63.08
2022-10-22T17:26:28.429Z,63.00
2022-10-22T17:28:55.956Z,63.07
2022-10-22T17:31:28.424Z,63.06
2022-10-22T17:33:57.480Z,63.12
2022-10-22T17:36:28.356Z,63.29
2022-10-22T17:38:58.508Z,63.52
2022-10-22T17:41:29.992Z,63.63
2022-10-22T17:44:02.703Z,63.68
2022-10-22T17:46:31.923Z,63.78
2022-10-22T17:49:03.854Z,63.85
2022-10-22T17:51:32.188Z,63.98
2022-10-22T17:54:00.580Z,64.05
2022-10-22T17:56:29.837Z,64.07
2022-10-22T17:59:00.539Z,64.29
2022-10-22T18:01:31.668Z,64.31
2022-10-22T18:04:03.346Z,64.40
2022-10-22T18:06:32.372Z,64.57
2022-10-22T18:09:05.511Z,64.83
2022-10-22T18:11:40.882Z,65.01
2022-10-22T18:14:09.097Z,65.03
2022-10-22T18:16:38.057Z,65.27
2022-10-22T18:19:05.689Z,65.39
2022-10-22T18:21:33.993Z,65.37
2022-10-22T18:24:01.814Z,65.41
2022-10-22T18:26:29.738Z,65.51
2022-10-22T18:28:58.657Z,65.62
2022-10-22T18:31:28.344Z,65.68
2022-10-22T18:33:57.129Z,65.66
2022-10-22T18:36:27.883Z,65.65
2022-10-22T18:38:59.516Z,65.70
2022-10-22T18:41:29.488Z,65.73
2022-10-22T18:44:03.086Z,65.85
2022-10-22T18:46:34.093Z,65.91
2022-10-22T18:49:01.800Z,65.93
2022-10-22T18:51:32.416Z,66.14
2022-10-22T18:54:22.204Z,66.15
2022-10-22T18:56:30.453Z,66.23
2022-10-22T18:58:57.919Z,66.28
2022-10-22T19:01:29.973Z,66.36
2022-10-22T19:03:57.925Z,66.42
2022-10-22T19:06:34.344Z,66.56
2022-10-22T19:09:00.852Z,66.63
2022-10-22T19:11:28.914Z,66.88
2022-10-22T19:13:57.085Z,66.83
2022-10-22T19:16:26.272Z,66.84
2022-10-22T19:19:04.296Z,66.87
2022-10-22T19:21:32.859Z,66.99
2022-10-22T19:24:01.694Z,67.01
2022-10-22T19:26:31.226Z,67.10
2022-10-22T19:28:59.967Z,67.18
2022-10-22T19:31:30.553Z,67.35
2022-10-22T19:34:00.699Z,67.49
2022-10-22T19:36:29.632Z,67.72
2022-10-22T19:38:58.244Z,67.94
2022-10-22T19:41:28.725Z,67.95
2022-10-22T19:43:57.557Z,68.07
2022-10-22T19:46:27.565Z,68.16
2022-10-22T19:48:57.605Z,68.44
2022-10-22T19:51:31.340Z,68.47
2022-10-22T19:54:07.272Z,68.54
2022-10-22T19:56:39.167Z,68.53
2022-10-22T19:59:07.573Z,68.54
2022-10-22T20:01:35.166Z,68.56
2022-10-22T20:04:03.140Z,68.55
2022-10-22T20:06:31.012Z,68.52
2022-10-22T20:08:58.735Z,68.59
2022-10-22T20:11:30.092Z,68.66
2022-10-22T20:13:58.947Z,68.65
2022-10-22T20:16:30.337Z,68.68
2022-10-22T20:19:05.566Z,68.64
2022-10-22T20:21:35.232Z,68.62
2022-10-22T20:24:03.193Z,68.58
2022-10-22T20:26:33.043Z,68.59
2022-10-22T20:29:00.563Z,68.62
2022-10-22T20:31:29.620Z,68.65
2022-10-22T20:33:59.210Z,68.65
2022-10-22T20:36:29.062Z,68.68
2022-10-22T20:39:05.196Z,68.72
2022-10-22T20:41:34.207Z,68.95
2022-10-22T20:44:01.853Z,68.96
2022-10-22T20:46:32.854Z,69.95
2022-10-22T20:49:07.546Z,69.24
2022-10-22T20:51:36.818Z,69.19
2022-10-22T20:54:06.836Z,69.32
2022-10-22T20:56:39.397Z,69.38
2022-10-22T20:59:10.314Z,69.41
2022-10-22T21:01:51.547Z,69.51
2022-10-22T21:04:21.152Z,69.58
2022-10-22T21:06:49.865Z,69.62
2022-10-22T21:09:17.662Z,69.70
2022-10-22T21:11:45.926Z,69.78
2022-10-22T21:14:16.464Z,69.80
2022-10-22T21:16:48.579Z,69.79
2022-10-22T21:19:18.216Z,69.82
2022-10-22T21:21:45.842Z,70.09
2022-10-22T21:24:13.816Z,70.05
2022-10-22T21:26:43.151Z,70.05
2022-10-22T21:29:12.697Z,70.11
2022-10-22T21:31:40.486Z,69.97
2022-10-22T21:34:08.173Z,69.90
2022-10-22T21:36:35.573Z,69.75
2022-10-22T21:39:03.446Z,69.63
2022-10-22T21:41:31.253Z,69.52
2022-10-22T21:43:59.745Z,69.35
2022-10-22T21:46:28.920Z,69.27
2022-10-22T21:49:03.118Z,69.17
2022-10-22T21:51:35.263Z,69.16
2022-10-22T21:54:02.893Z,69.50
2022-10-22T21:56:34.509Z,69.98
2022-10-22T21:59:04.974Z,69.95
2022-10-22T22:01:33.830Z,70.05
2022-10-22T22:04:01.804Z,70.23
2022-10-22T22:06:33.537Z,70.41
2022-10-22T22:09:03.484Z,70.50
2022-10-22T22:11:31.975Z,70.57
2022-10-22T22:14:00.417Z,70.91
2022-10-22T22:16:31.273Z,71.14
2022-10-22T22:19:01.571Z,71.37
2022-10-22T22:21:29.748Z,71.47
2022-10-22T22:23:58.107Z,71.59
2022-10-22T22:26:29.760Z,71.73
2022-10-22T22:28:59.344Z,71.75
2022-10-22T22:31:32.845Z,71.86
2022-10-22T22:34:07.894Z,72.12
2022-10-22T22:36:39.552Z,72.22
2022-10-22T22:39:10.812Z,72.36
2022-10-22T22:41:41.960Z,72.66
2022-10-22T22:44:10.071Z,72.89
2022-10-22T22:46:37.989Z,73.01
2022-10-22T22:49:05.863Z,73.02
2022-10-22T22:51:33.552Z,73.29
2022-10-22T22:54:01.897Z,73.45
2022-10-22T22:56:32.972Z,73.55
2022-10-22T22:59:00.825Z,73.60
2022-10-22T23:01:32.584Z,73.93
2022-10-22T23:04:18.142Z,74.20
2022-10-22T23:06:46.104Z,74.27
2022-10-22T23:09:15.646Z,74.41
2022-10-22T23:11:48.756Z,74.57
2022-10-22T23:14:20.652Z,75.10
2022-10-22T23:16:54.408Z,75.22
2022-10-22T23:19:25.689Z,75.39
2022-10-22T23:21:55.701Z,75.50
2022-10-22T23:24:27.825Z,75.72
2022-10-22T23:26:59.898Z,75.81
2022-10-22T23:29:31.003Z,76.12
2022-10-22T23:32:01.737Z,76.30
2022-10-22T23:34:31.036Z,76.32
2022-10-22T23:36:59.094Z,76.41
2022-10-22T23:39:28.966Z,76.62
2022-10-22T23:41:57.667Z,76.71
2022-10-22T23:44:25.610Z,76.85
2022-10-22T23:46:53.536Z,76.83
2022-10-22T23:49:21.562Z,76.98
2022-10-22T23:51:52.115Z,77.09
2022-10-22T23:54:19.851Z,77.27
2022-10-22T23:56:47.347Z,77.42
2022-10-22T23:59:15.468Z,77.61
